createdAt,value
2018-08-10T03:07:32.040Z,78.27
2018-08-10T03:39:55.813Z,77.63
2018-08-10T03:42:22.485Z,77.83
2018-08-10T03:44:49.168Z,78.21
2018-08-10T03:47:15.996Z,78.25
2018-08-10T03:49:42.572Z,78.29
2018-08-10T03:52:09.049Z,78.19
2018-08-10T03:54:35.517Z,77.96
2018-08-10T03:57:02.427Z,78.25
2018-08-10T03:59:28.872Z,79.01
2018-08-10T04:01:55.339Z,78.39
2018-08-10T04:04:24.706Z,78.44
2018-08-10T04:06:52.672Z,78.56
2018-08-10T04:09:19.328Z,78.88
2018-08-10T04:51:30.431Z,79.83
2018-08-10T04:53:57.097Z,80.40
2018-08-10T04:56:23.731Z,80.25
2018-08-10T04:58:50.568Z,80.01
2018-08-10T05:01:17.208Z,79.80
2018-08-10T05:03:43.721Z,79.62
2018-08-10T05:06:10.697Z,80.04
2018-08-10T05:08:37.181Z,80.18
2018-08-10T05:12:05.431Z,80.11
2018-08-10T05:14:32.035Z,80.51
2018-08-10T05:30:37.871Z,80.01
2018-08-10T05:33:05.391Z,80.09
2018-08-10T05:35:33.563Z,79.62
2018-08-10T05:38:00.080Z,79.81
2018-08-10T05:40:26.589Z,79.94
2018-08-10T05:42:53.357Z,79.59
2018-08-10T05:45:20.609Z,79.28
2018-08-10T05:47:47.909Z,79.39
2018-08-10T07:53:32.381Z,60.18
2018-08-10T07:55:59.291Z,60.62
2018-08-10T07:58:25.842Z,60.56
2018-08-10T08:00:54.620Z,61.48
2018-08-10T08:03:22.391Z,59.67
2018-08-10T08:05:49.736Z,60.05
2018-08-10T08:08:16.895Z,60.60
2018-08-10T08:10:43.426Z,60.44
2018-08-10T08:13:09.927Z,60.12
2018-08-10T08:15:37.032Z,59.76
2018-08-10T08:18:03.609Z,59.68
2018-08-10T08:20:31.056Z,58.79
2018-08-10T08:22:59.109Z,59.53
2018-08-10T08:25:26.374Z,58.87
2018-08-10T08:27:53.331Z,57.90
2018-08-10T08:30:22.004Z,57.12
2018-08-10T08:32:48.742Z,56.77
2018-08-10T08:35:15.350Z,57.22
2018-08-10T08:37:42.277Z,56.49
2018-08-10T08:40:08.783Z,53.26
2018-08-10T08:42:37.001Z,55.45
2018-08-10T08:45:06.942Z,56.64
2018-08-10T08:47:33.622Z,57.53
2018-08-10T08:50:01.152Z,58.40
2018-08-10T08:52:27.648Z,58.30
2018-08-10T08:54:54.362Z,57.82
2018-08-10T08:57:21.196Z,56.71
2018-08-10T08:59:47.640Z,55.73
2018-08-10T09:02:14.133Z,54.14
2018-08-10T09:04:40.925Z,52.26
2018-08-10T09:07:09.085Z,52.83
2018-08-10T16:10:16.170Z,24.75
2018-08-10T16:12:42.671Z,26.65
2018-08-10T16:16:32.811Z,26.02
2018-08-10T18:24:11.684Z,33.24
2018-08-10T18:26:39.942Z,31.02
2018-08-10T18:29:06.567Z,30.08
2018-08-10T19:15:02.856Z,36.85
2018-08-10T19:17:29.802Z,37.05
2018-08-10T19:19:56.558Z,37.16
2018-08-10T19:22:24.126Z,37.91
2018-08-10T19:24:52.032Z,37.62
2018-08-10T19:27:19.975Z,37.72
2018-08-10T19:29:51.802Z,37.80
2018-08-10T19:32:22.216Z,38.36
2018-08-10T19:34:51.169Z,38.58
2018-08-10T19:37:17.729Z,38.30
2018-08-10T19:39:45.361Z,38.92
2018-08-10T19:42:11.939Z,39.14
2018-08-10T19:44:38.498Z,39.05
2018-08-10T19:52:14.323Z,39.47
2018-08-10T19:54:43.748Z,39.99
2018-08-10T19:57:11.550Z,39.93
2018-08-10T19:59:38.201Z,39.89
2018-08-10T20:02:05.234Z,40.26
2018-08-10T20:04:32.368Z,40.30
2018-08-10T20:07:01.602Z,40.61
2018-08-10T20:09:35.995Z,40.00
2018-08-10T20:12:02.796Z,40.24
2018-08-10T20:14:30.589Z,41.16
2018-08-10T20:16:59.700Z,40.49
2018-08-10T20:22:02.333Z,40.96
2018-08-10T20:24:29.498Z,41.13
2018-08-10T20:26:56.264Z,41.17
2018-08-10T20:29:22.793Z,41.53
2018-08-10T20:31:50.660Z,41.72
2018-08-10T20:34:17.341Z,41.31
2018-08-10T20:36:43.931Z,41.33
2018-08-10T20:39:11.374Z,41.67
2018-08-10T20:41:37.956Z,41.40
2018-08-10T20:44:04.494Z,41.19
2018-08-10T20:46:31.475Z,41.40
2018-08-10T20:48:59.076Z,41.54
2018-08-10T20:51:26.097Z,41.46
2018-08-10T20:53:54.973Z,40.90
2018-08-10T20:56:22.134Z,41.06
2018-08-10T20:58:48.609Z,40.83
2018-08-10T21:01:16.119Z,41.09
2018-08-10T21:03:42.656Z,41.16
2018-08-10T21:06:10.518Z,41.22
2018-08-10T21:08:37.478Z,41.53
2018-08-10T21:11:05.897Z,41.60
2018-08-10T21:13:32.524Z,41.16
2018-08-10T21:15:59.443Z,41.51
2018-08-10T21:18:26.128Z,41.81
2018-08-10T21:20:52.697Z,41.56
2018-08-10T21:23:20.193Z,41.92
2018-08-10T21:25:46.812Z,41.73
2018-08-10T21:28:13.396Z,42.18
2018-08-10T21:30:40.499Z,42.50
2018-08-10T21:33:08.631Z,42.76
2018-08-10T21:35:35.119Z,42.80
2018-08-10T21:38:02.691Z,42.82
2018-08-10T21:40:29.208Z,43.19
2018-08-10T21:42:55.730Z,43.49
2018-08-10T21:45:22.661Z,43.64
2018-08-10T21:47:51.375Z,43.44
2018-08-10T21:50:17.894Z,43.44
2018-08-10T23:37:04.494Z,48.46
2018-08-10T23:39:32.015Z,49.04
2018-08-10T23:41:59.482Z,49.48
2018-08-10T23:44:27.661Z,49.70
2018-08-10T23:46:54.781Z,49.83
2018-08-10T23:49:21.233Z,49.30
2018-08-10T23:51:48.056Z,49.64
2018-08-10T23:54:14.514Z,49.95
2018-08-10T23:56:40.964Z,50.18
2018-08-10T23:59:07.459Z,50.16
